createdAt,value
2017-04-19T00:00:35.929Z,0
2017-04-19T00:01:16.338Z,0
2017-04-19T00:01:56.736Z,0
2017-04-19T00:02:37.120Z,0
2017-04-19T00:03:17.591Z,0
2017-04-19T00:03:58.009Z,0
2017-04-19T00:04:38.440Z,0
2017-04-19T00:05:18.851Z,0
2017-04-19T00:05:59.247Z,0
2017-04-19T00:06:39.688Z,0
2017-04-19T00:07:20.092Z,0
2017-04-19T00:08:00.474Z,0
2017-04-19T00:08:40.887Z,0
2017-04-19T00:09:21.305Z,0
2017-04-19T00:10:01.683Z,0
2017-04-19T00:10:42.107Z,0
2017-04-19T00:11:22.549Z,0
2017-04-19T00:12:02.938Z,0
2017-04-19T00:12:43.362Z,0
2017-04-19T00:13:23.774Z,0
2017-04-19T00:14:04.195Z,0
2017-04-19T00:14:44.624Z,0
2017-04-19T00:15:25.041Z,0
2017-04-19T00:16:05.422Z,0
2017-04-19T00:18:33.864Z,0
2017-04-19T00:19:14.265Z,0
2017-04-19T00:19:54.711Z,0
2017-04-19T00:20:35.153Z,0
2017-04-19T00:21:15.552Z,0
2017-04-19T00:21:56.017Z,0
2017-04-19T00:22:36.406Z,0
2017-04-19T00:23:16.816Z,0
2017-04-19T00:23:57.209Z,0
2017-04-19T00:24:37.620Z,0
2017-04-19T00:25:18.014Z,0
2017-04-19T00:25:58.413Z,0
2017-04-19T00:28:16.384Z,0
2017-04-19T00:28:56.780Z,0
2017-04-19T00:30:54.581Z,0
2017-04-19T00:31:35.026Z,0
2017-04-19T00:32:15.433Z,0
2017-04-19T00:32:55.883Z,0
2017-04-19T00:33:36.287Z,0
2017-04-19T00:34:16.687Z,0
2017-04-19T00:34:57.081Z,0
2017-04-19T00:35:37.491Z,0
2017-04-19T00:36:17.873Z,0
2017-04-19T00:36:58.279Z,0
2017-04-19T00:37:38.668Z,0
2017-04-19T00:38:19.075Z,0
2017-04-19T00:38:59.464Z,0
2017-04-19T00:41:12.577Z,0
2017-04-19T00:41:53.037Z,0
2017-04-19T00:42:33.482Z,0
2017-04-19T00:43:13.898Z,0
2017-04-19T00:43:54.312Z,0
2017-04-19T00:44:34.716Z,0
2017-04-19T00:45:15.111Z,0
2017-04-19T00:45:55.522Z,0
2017-04-19T00:46:35.973Z,0
2017-04-19T00:47:16.390Z,0
2017-04-19T00:47:56.791Z,0
2017-04-19T00:48:37.211Z,0
2017-04-19T00:49:17.613Z,0
2017-04-19T00:49:58.043Z,0
2017-04-19T00:50:38.496Z,0
2017-04-19T00:51:18.864Z,0
2017-04-19T00:51:59.297Z,0
2017-04-19T00:52:39.709Z,0
2017-04-19T00:53:20.107Z,0
2017-04-19T00:54:00.508Z,0
2017-04-19T00:54:40.939Z,0
2017-04-19T00:55:21.362Z,0
2017-04-19T00:56:01.747Z,0
2017-04-19T00:56:42.156Z,0
2017-04-19T00:57:22.581Z,0
2017-04-19T00:58:03.879Z,0
2017-04-19T00:58:44.317Z,0
2017-04-19T00:59:24.745Z,0
2017-04-19T01:00:05.123Z,0
2017-04-19T01:00:45.551Z,0
2017-04-19T01:01:25.961Z,0
2017-04-19T01:02:06.384Z,0
2017-04-19T01:02:46.744Z,0
2017-04-19T01:03:27.193Z,0
2017-04-19T01:04:07.579Z,0
2017-04-19T01:04:48.008Z,0
2017-04-19T01:05:28.410Z,0
2017-04-19T01:06:08.853Z,0
2017-04-19T01:06:49.277Z,0
2017-04-19T01:07:29.735Z,0
2017-04-19T01:08:10.148Z,0
2017-04-19T01:08:50.535Z,0
2017-04-19T01:09:30.937Z,0
2017-04-19T01:10:11.374Z,0
2017-04-19T01:10:51.803Z,0
2017-04-19T01:11:32.231Z,0
2017-04-19T01:12:12.653Z,0
2017-04-19T01:12:53.087Z,0
2017-04-19T01:13:33.484Z,0
2017-04-19T01:14:13.884Z,0
2017-04-19T01:14:54.286Z,0
2017-04-19T01:15:34.719Z,0
2017-04-19T01:16:15.086Z,0
2017-04-19T01:16:55.698Z,0
2017-04-19T01:17:36.128Z,0
2017-04-19T01:18:16.541Z,0
2017-04-19T01:18:56.974Z,0
2017-04-19T01:21:09.767Z,0
2017-04-19T01:21:50.527Z,0
2017-04-19T01:22:30.845Z,0
2017-04-19T01:23:11.243Z,0
2017-04-19T01:23:51.632Z,0
2017-04-19T01:24:32.053Z,0
2017-04-19T01:25:12.478Z,0
2017-04-19T01:25:52.851Z,0
2017-04-19T01:26:33.258Z,0
2017-04-19T01:27:13.659Z,0
2017-04-19T01:27:54.129Z,0
2017-04-19T01:28:34.524Z,0
2017-04-19T01:29:14.944Z,0
2017-04-19T01:29:55.347Z,0
2017-04-19T01:30:35.731Z,0
2017-04-19T01:31:16.121Z,0
2017-04-19T01:31:56.547Z,0
2017-04-19T01:32:36.985Z,0
2017-04-19T01:33:17.364Z,0
2017-04-19T01:33:57.762Z,0
2017-04-19T01:34:38.196Z,0
2017-04-19T01:35:18.607Z,0
2017-04-19T01:35:59.015Z,0
2017-04-19T01:36:39.398Z,0
2017-04-19T01:37:19.817Z,0
2017-04-19T01:38:00.256Z,0
2017-04-19T01:38:40.700Z,0
2017-04-19T01:39:21.062Z,0
2017-04-19T01:40:01.488Z,0
2017-04-19T01:40:41.908Z,0
2017-04-19T01:41:22.264Z,0
2017-04-19T01:42:02.734Z,0
2017-04-19T01:42:43.153Z,0
2017-04-19T01:43:23.529Z,0
2017-04-19T01:44:03.972Z,0
2017-04-19T01:44:44.372Z,0
2017-04-19T01:45:24.784Z,0
2017-04-19T01:46:05.201Z,0
2017-04-19T01:46:45.606Z,0
2017-04-19T01:47:26.037Z,0
2017-04-19T01:48:06.416Z,0
2017-04-19T01:48:46.839Z,0
2017-04-19T01:49:27.293Z,0
2017-04-19T01:50:07.732Z,0
2017-04-19T01:50:49.630Z,0
2017-04-19T01:51:30.054Z,0
2017-04-19T01:52:10.470Z,0
2017-04-19T01:52:51.809Z,0
2017-04-19T01:53:32.246Z,0
2017-04-19T01:54:12.616Z,0
2017-04-19T01:56:10.360Z,0
2017-04-19T01:56:50.796Z,0
2017-04-19T01:57:31.204Z,0
2017-04-19T01:58:11.601Z,0
2017-04-19T01:58:52.032Z,0
2017-04-19T01:59:32.438Z,0
2017-04-19T02:00:12.853Z,0
2017-04-19T02:00:53.298Z,0
2017-04-19T02:01:34.549Z,0
2017-04-19T02:02:14.958Z,0
2017-04-19T02:02:55.358Z,0
2017-04-19T02:03:35.765Z,0
2017-04-19T02:04:16.191Z,0
2017-04-19T02:04:56.615Z,0
2017-04-19T02:05:37.083Z,0
2017-04-19T02:06:17.453Z,0
2017-04-19T02:06:57.870Z,0
2017-04-19T02:07:38.255Z,0
2017-04-19T02:08:18.689Z,0
2017-04-19T02:08:59.079Z,0
2017-04-19T02:09:40.073Z,0
2017-04-19T02:10:20.474Z,0
2017-04-19T02:11:00.878Z,0
2017-04-19T02:11:41.275Z,0
2017-04-19T02:12:21.692Z,0
2017-04-19T02:13:02.073Z,0
2017-04-19T02:13:42.496Z,0
2017-04-19T02:14:22.892Z,0
2017-04-19T02:15:03.291Z,0
2017-04-19T02:15:43.727Z,0
2017-04-19T02:16:24.248Z,0
2017-04-19T02:17:04.671Z,0
2017-04-19T02:17:45.076Z,0
2017-04-19T02:18:25.494Z,0
2017-04-19T02:19:05.925Z,0
2017-04-19T02:19:46.321Z,0
2017-04-19T02:20:26.725Z,0
2017-04-19T02:21:07.182Z,0
2017-04-19T02:21:47.578Z,0
2017-04-19T02:22:28.026Z,0
2017-04-19T02:23:08.384Z,0
2017-04-19T02:23:48.806Z,0
2017-04-19T02:24:29.224Z,0
2017-04-19T02:25:09.614Z,0
2017-04-19T02:25:50.043Z,0
2017-04-19T02:26:30.483Z,0
2017-04-19T02:27:10.914Z,0
2017-04-19T02:27:51.305Z,0
2017-04-19T02:28:33.250Z,0
2017-04-19T02:29:14.490Z,0
2017-04-19T02:29:54.969Z,0
2017-04-19T02:30:35.404Z,0
2017-04-19T02:31:15.805Z,0
2017-04-19T02:31:56.212Z,0
2017-04-19T02:32:36.648Z,0
2017-04-19T02:33:17.606Z,0
2017-04-19T02:33:58.011Z,0
2017-04-19T02:34:38.414Z,0
2017-04-19T02:35:19.576Z,0
2017-04-19T02:35:59.979Z,0
2017-04-19T02:36:40.417Z,0
2017-04-19T02:37:20.850Z,0
2017-04-19T02:38:01.215Z,0
2017-04-19T02:38:41.625Z,0
2017-04-19T02:39:22.047Z,0
2017-04-19T02:40:02.509Z,0
2017-04-19T02:40:42.884Z,0
2017-04-19T02:41:23.265Z,0
2017-04-19T02:42:03.695Z,0
2017-04-19T02:42:44.130Z,0
2017-04-19T02:43:24.590Z,0
2017-04-19T02:44:05.023Z,0
2017-04-19T02:44:45.457Z,0
2017-04-19T02:47:18.962Z,0
2017-04-19T02:47:59.400Z,0
2017-04-19T02:48:39.833Z,0
2017-04-19T02:49:20.219Z,0
2017-04-19T02:50:00.676Z,0
2017-04-19T02:50:41.101Z,0
2017-04-19T02:51:21.477Z,0
2017-04-19T02:52:01.920Z,0
2017-04-19T02:52:42.320Z,0
2017-04-19T02:53:22.764Z,0
2017-04-19T02:54:03.201Z,0
2017-04-19T02:54:43.597Z,0
2017-04-19T02:55:24.026Z,0
2017-04-19T02:56:04.435Z,0
2017-04-19T02:56:44.828Z,0
2017-04-19T02:57:25.240Z,0
2017-04-19T02:58:05.617Z,0
2017-04-19T02:58:46.018Z,0
2017-04-19T02:59:26.449Z,0
2017-04-19T03:00:06.812Z,0
2017-04-19T03:00:47.256Z,0
2017-04-19T03:01:27.659Z,0
2017-04-19T03:03:45.958Z,0
2017-04-19T03:04:26.383Z,0
2017-04-19T03:05:06.785Z,0
2017-04-19T03:05:47.193Z,0
2017-04-19T03:06:27.600Z,0
2017-04-19T03:07:08.026Z,0
2017-04-19T03:07:48.457Z,0
2017-04-19T03:08:28.852Z,0
2017-04-19T03:09:09.258Z,0
2017-04-19T03:09:49.654Z,0
2017-04-19T03:10:30.059Z,0
2017-04-19T03:11:10.465Z,0
2017-04-19T03:11:50.878Z,0
2017-04-19T03:12:31.301Z,0
2017-04-19T03:13:11.709Z,0
2017-04-19T03:13:52.114Z,0
2017-04-19T03:14:32.529Z,0
2017-04-19T03:15:12.968Z,0
2017-04-19T03:15:53.369Z,0
2017-04-19T03:16:33.758Z,0
2017-04-19T03:17:14.198Z,0
2017-04-19T03:17:54.596Z,0
2017-04-19T03:18:35.042Z,0
2017-04-19T03:19:15.446Z,0
2017-04-19T03:19:55.850Z,0
2017-04-19T03:20:36.236Z,0
2017-04-19T03:21:16.632Z,0
2017-04-19T03:21:57.063Z,0
2017-04-19T03:22:37.451Z,0
2017-04-19T03:23:18.333Z,0
2017-04-19T03:23:58.770Z,0
2017-04-19T03:24:39.161Z,0
2017-04-19T03:25:19.566Z,0
2017-04-19T03:25:59.970Z,0
2017-04-19T03:26:40.373Z,0
2017-04-19T03:27:20.773Z,0
2017-04-19T03:28:01.185Z,0
2017-04-19T03:28:41.601Z,0
2017-04-19T03:29:22.014Z,0
2017-04-19T03:30:02.449Z,0
2017-04-19T03:30:42.835Z,0
2017-04-19T03:31:23.259Z,0
2017-04-19T03:32:03.662Z,0
2017-04-19T03:32:44.094Z,0
2017-04-19T03:33:24.496Z,0
2017-04-19T03:34:04.894Z,0
2017-04-19T03:34:45.310Z,0
2017-04-19T03:35:25.705Z,0
2017-04-19T03:36:06.104Z,0
2017-04-19T03:36:46.529Z,0
2017-04-19T03:37:26.935Z,0
2017-04-19T03:38:07.322Z,0
2017-04-19T03:38:47.735Z,0
2017-04-19T03:39:28.135Z,0
2017-04-19T03:40:08.514Z,0
2017-04-19T03:40:48.935Z,0
2017-04-19T03:41:29.350Z,0
2017-04-19T03:42:09.763Z,0
2017-04-19T03:42:50.763Z,0
2017-04-19T03:43:31.198Z,0
2017-04-19T03:44:11.631Z,0
2017-04-19T03:44:52.012Z,0
2017-04-19T03:45:32.468Z,0
2017-04-19T03:46:12.817Z,0
2017-04-19T03:46:53.270Z,0
2017-04-19T03:47:33.625Z,0
2017-04-19T03:48:14.073Z,0
2017-04-19T03:48:54.448Z,0
2017-04-19T03:49:34.849Z,0
2017-04-19T03:50:15.293Z,0
2017-04-19T03:50:55.719Z,0
2017-04-19T03:51:36.075Z,0
2017-04-19T03:52:16.523Z,4
2017-04-19T03:52:56.922Z,4
2017-04-19T03:53:37.624Z,4
2017-04-19T03:54:18.037Z,4
2017-04-19T03:54:58.426Z,0
2017-04-19T03:55:38.863Z,4
2017-04-19T03:56:19.243Z,4
2017-04-19T03:56:59.671Z,4
2017-04-19T03:57:40.064Z,4
2017-04-19T03:58:20.473Z,4
2017-04-19T03:59:00.879Z,4
2017-04-19T03:59:41.311Z,4
2017-04-19T04:00:21.713Z,4
2017-04-19T04:01:02.064Z,8
2017-04-19T04:01:42.513Z,8
2017-04-19T04:02:23.632Z,8
2017-04-19T04:03:04.025Z,8
2017-04-19T04:03:44.422Z,8
2017-04-19T04:04:24.820Z,12
2017-04-19T04:05:05.173Z,12
2017-04-19T04:05:45.640Z,12
2017-04-19T04:06:26.030Z,12
2017-04-19T04:07:06.447Z,16
2017-04-19T04:07:46.877Z,20
2017-04-19T04:08:27.248Z,20
2017-04-19T04:09:07.623Z,24
2017-04-19T04:09:48.069Z,28
2017-04-19T04:10:28.477Z,28
2017-04-19T04:11:08.914Z,32
2017-04-19T04:11:49.292Z,32
2017-04-19T04:12:29.695Z,36
2017-04-19T04:13:10.116Z,36
2017-04-19T04:13:50.470Z,44
2017-04-19T04:14:31.027Z,44
2017-04-19T04:15:11.355Z,48
2017-04-19T04:15:51.759Z,56
2017-04-19T04:16:32.202Z,56
2017-04-19T04:17:12.584Z,60
2017-04-19T04:17:53.037Z,64
2017-04-19T04:18:33.412Z,72
2017-04-19T04:19:13.806Z,76
2017-04-19T04:19:54.168Z,80
2017-04-19T04:20:34.549Z,84
2017-04-19T04:21:14.954Z,88
2017-04-19T04:21:55.416Z,92
2017-04-19T04:22:35.809Z,100
2017-04-19T04:23:16.193Z,100
2017-04-19T04:23:56.581Z,108
2017-04-19T04:24:37.021Z,112
2017-04-19T04:25:17.386Z,120
2017-04-19T04:25:57.790Z,124
2017-04-19T04:26:38.239Z,128
2017-04-19T04:27:18.612Z,128
2017-04-19T04:27:59.089Z,132
2017-04-19T04:28:39.445Z,136
2017-04-19T04:29:19.865Z,136
2017-04-19T04:30:00.260Z,136
2017-04-19T04:30:40.718Z,136
2017-04-19T04:31:21.069Z,136
2017-04-19T04:32:01.492Z,140
2017-04-19T04:32:41.826Z,144
2017-04-19T04:33:22.304Z,152
2017-04-19T04:34:02.815Z,152
2017-04-19T04:34:43.178Z,152
2017-04-19T04:35:23.572Z,156
2017-04-19T04:36:03.962Z,156
2017-04-19T04:36:44.392Z,156
2017-04-19T04:37:24.773Z,160
2017-04-19T04:38:05.190Z,160
2017-04-19T04:38:45.550Z,160
2017-04-19T04:39:25.971Z,152
2017-04-19T04:40:06.324Z,156
2017-04-19T04:40:46.744Z,164
2017-04-19T04:41:27.170Z,172
2017-04-19T04:42:07.603Z,176
2017-04-19T04:42:48.070Z,188
2017-04-19T04:43:28.499Z,188
2017-04-19T04:44:08.907Z,184
2017-04-19T04:44:50.222Z,176
2017-04-19T04:45:30.643Z,176
2017-04-19T04:46:11.046Z,176
2017-04-19T04:46:51.460Z,180
2017-04-19T04:47:33.147Z,188
2017-04-19T04:48:13.575Z,188
2017-04-19T04:48:53.963Z,196
2017-04-19T04:49:34.391Z,208
2017-04-19T04:50:14.760Z,212
2017-04-19T04:50:55.168Z,212
2017-04-19T04:51:35.590Z,212
2017-04-19T04:52:15.972Z,220
2017-04-19T04:52:56.391Z,240
2017-04-19T04:53:36.771Z,252
2017-04-19T04:54:17.180Z,264
2017-04-19T04:54:57.601Z,272
2017-04-19T04:55:38.008Z,280
2017-04-19T04:56:18.393Z,280
2017-04-19T04:56:58.834Z,280
2017-04-19T04:57:39.246Z,312
2017-04-19T04:58:19.641Z,348
2017-04-19T04:59:00.077Z,368
2017-04-19T04:59:40.416Z,392
2017-04-19T05:00:20.860Z,428
2017-04-19T05:01:01.280Z,460
2017-04-19T05:01:41.681Z,496
2017-04-19T05:02:22.814Z,512
2017-04-19T05:03:03.205Z,528
2017-04-19T05:03:43.614Z,560
2017-04-19T05:04:24.021Z,584
2017-04-19T05:05:04.400Z,592
2017-04-19T05:05:44.802Z,604
2017-04-19T05:06:25.748Z,616
2017-04-19T05:07:06.122Z,628
2017-04-19T05:07:46.538Z,644
2017-04-19T05:08:26.929Z,660
2017-04-19T05:09:07.333Z,680
2017-04-19T05:09:47.753Z,704
2017-04-19T05:10:28.180Z,704
2017-04-19T05:11:08.583Z,672
2017-04-19T05:11:48.943Z,656
2017-04-19T05:12:29.335Z,640
2017-04-19T05:13:09.728Z,648
2017-04-19T05:13:50.829Z,676
2017-04-19T05:14:31.196Z,692
2017-04-19T05:15:11.645Z,760
2017-04-19T05:15:52.047Z,780
2017-04-19T05:16:32.419Z,828
2017-04-19T05:17:12.823Z,936
2017-04-19T05:17:53.220Z,1040
2017-04-19T05:18:33.667Z,1072
2017-04-19T05:19:14.027Z,1100
2017-04-19T05:19:54.458Z,1116
2017-04-19T05:20:34.910Z,1136
2017-04-19T05:21:15.273Z,1188
2017-04-19T05:21:55.698Z,1196
2017-04-19T05:22:36.145Z,1280
2017-04-19T05:23:16.524Z,1284
2017-04-19T05:23:57.634Z,1232
2017-04-19T05:24:38.035Z,1188
2017-04-19T05:25:18.466Z,1136
2017-04-19T05:25:58.816Z,1180
2017-04-19T05:26:39.209Z,1224
2017-04-19T05:27:19.618Z,1236
2017-04-19T05:28:00.069Z,1192
2017-04-19T05:28:40.465Z,1024
2017-04-19T05:29:20.774Z,976
2017-04-19T05:30:01.209Z,1068
2017-04-19T05:30:41.617Z,1068
2017-04-19T05:31:21.995Z,1068
2017-04-19T05:32:03.354Z,984
2017-04-19T05:32:43.720Z,1004
2017-04-19T05:33:24.162Z,920
2017-04-19T05:34:04.610Z,960
2017-04-19T05:34:44.966Z,1068
2017-04-19T05:35:25.384Z,1152
2017-04-19T05:36:05.788Z,1136
2017-04-19T05:36:46.250Z,932
2017-04-19T05:37:26.708Z,932
2017-04-19T05:38:07.109Z,964
2017-04-19T05:38:47.465Z,1048
2017-04-19T05:39:27.893Z,988
2017-04-19T05:40:08.287Z,976
2017-04-19T05:40:48.662Z,1040
2017-04-19T05:41:29.082Z,1344
2017-04-19T05:42:09.511Z,1380
2017-04-19T05:42:49.904Z,1588
2017-04-19T05:43:30.333Z,1720
2017-04-19T05:44:10.773Z,1784
2017-04-19T05:44:51.297Z,1828
2017-04-19T05:45:32.601Z,1968
2017-04-19T05:46:13.033Z,2032
2017-04-19T05:46:53.435Z,1940
2017-04-19T05:47:33.893Z,1840
2017-04-19T05:48:14.346Z,1612
2017-04-19T05:48:54.728Z,1600
2017-04-19T05:49:35.121Z,1544
2017-04-19T05:50:15.531Z,1496
2017-04-19T05:50:55.972Z,1500
2017-04-19T05:51:36.406Z,1468
2017-04-19T05:52:16.754Z,1456
2017-04-19T05:52:57.171Z,1560
2017-04-19T05:53:37.600Z,1408
2017-04-19T05:54:18.005Z,1396
2017-04-19T05:54:58.411Z,1344
2017-04-19T05:55:38.815Z,1380
2017-04-19T05:56:19.192Z,1356
2017-04-19T05:56:59.630Z,1296
2017-04-19T05:57:39.986Z,1504
2017-04-19T05:58:20.398Z,1744
2017-04-19T05:59:00.892Z,1796
2017-04-19T05:59:41.253Z,1788
2017-04-19T06:00:21.664Z,1808
2017-04-19T06:01:02.092Z,1816
2017-04-19T06:01:42.510Z,1936
2017-04-19T06:02:22.899Z,1888
2017-04-19T06:03:03.277Z,1704
2017-04-19T06:03:43.679Z,1744
2017-04-19T06:04:24.108Z,1716
2017-04-19T06:05:04.616Z,1588
2017-04-19T06:05:45.020Z,1516
2017-04-19T06:06:25.437Z,1480
2017-04-19T06:07:05.851Z,1548
2017-04-19T06:07:46.243Z,1624
2017-04-19T06:08:26.642Z,1556
2017-04-19T06:09:07.074Z,1604
2017-04-19T06:09:47.494Z,1728
2017-04-19T06:10:27.886Z,1748
2017-04-19T06:11:08.289Z,1860
2017-04-19T06:11:48.686Z,1908
2017-04-19T06:12:29.032Z,1852
2017-04-19T06:13:09.488Z,1968
2017-04-19T06:13:49.879Z,2000
2017-04-19T06:14:30.261Z,2008
2017-04-19T06:15:10.622Z,2120
2017-04-19T06:15:51.018Z,2156
2017-04-19T06:16:31.493Z,2116
2017-04-19T06:17:11.871Z,2076
2017-04-19T06:17:52.354Z,2176
2017-04-19T06:18:32.705Z,2148
2017-04-19T06:19:13.109Z,2260
2017-04-19T06:19:53.510Z,2424
2017-04-19T06:20:33.949Z,2456
2017-04-19T06:21:14.353Z,2312
2017-04-19T06:21:54.747Z,2204
2017-04-19T06:22:35.108Z,2308
2017-04-19T06:23:15.540Z,2304
2017-04-19T06:23:55.964Z,2340
2017-04-19T06:24:36.320Z,2424
2017-04-19T06:25:16.759Z,2444
2017-04-19T06:25:57.178Z,2556
2017-04-19T06:26:37.525Z,2616
2017-04-19T06:27:17.976Z,2488
2017-04-19T06:27:58.380Z,2488
2017-04-19T06:28:38.758Z,2472
2017-04-19T06:29:19.210Z,2572
2017-04-19T06:29:59.598Z,2700
2017-04-19T06:30:40.039Z,2788
2017-04-19T06:31:20.402Z,2828
2017-04-19T06:32:00.809Z,3128
2017-04-19T06:32:41.192Z,3344
2017-04-19T06:33:21.601Z,3448
2017-04-19T06:34:02.005Z,3592
2017-04-19T06:34:42.368Z,3748
2017-04-19T06:35:22.808Z,3856
2017-04-19T06:36:03.191Z,4072
2017-04-19T06:36:43.623Z,4360
2017-04-19T06:37:23.975Z,4448
2017-04-19T06:38:04.415Z,4652
2017-04-19T06:38:44.819Z,4744
2017-04-19T06:39:25.182Z,4888
2017-04-19T06:40:05.675Z,5388
2017-04-19T06:40:46.019Z,5880
2017-04-19T06:41:26.476Z,6056
2017-04-19T06:42:06.910Z,5892
2017-04-19T06:42:47.261Z,5824
2017-04-19T06:43:27.691Z,5924
2017-04-19T06:44:08.100Z,5960
2017-04-19T06:44:48.469Z,5980
2017-04-19T06:45:28.911Z,6520
2017-04-19T06:46:09.253Z,7360
2017-04-19T06:46:49.708Z,8192
2017-04-19T06:47:30.153Z,7764
2017-04-19T06:48:10.532Z,7036
2017-04-19T06:48:50.960Z,6252
2017-04-19T06:49:31.419Z,5828
2017-04-19T06:50:11.779Z,5952
2017-04-19T06:50:52.193Z,6528
2017-04-19T06:51:32.732Z,6516
2017-04-19T06:52:13.160Z,6288
2017-04-19T06:52:53.558Z,6080
2017-04-19T06:53:33.920Z,6560
2017-04-19T06:54:14.349Z,6608
2017-04-19T06:54:54.797Z,6232
2017-04-19T06:55:35.194Z,5776
2017-04-19T06:56:15.598Z,5892
2017-04-19T06:56:56.009Z,5080
2017-04-19T06:57:36.425Z,5380
2017-04-19T06:58:16.796Z,5588
2017-04-19T06:58:57.257Z,6000
2017-04-19T06:59:37.608Z,7024
2017-04-19T07:00:18.029Z,7088
2017-04-19T07:00:58.457Z,7076
2017-04-19T07:01:38.852Z,5884
2017-04-19T07:02:19.287Z,7200
2017-04-19T07:02:59.705Z,6956
2017-04-19T07:03:40.175Z,5296
2017-04-19T07:04:20.521Z,5684
2017-04-19T07:05:00.899Z,7508
2017-04-19T07:05:41.330Z,8088
2017-04-19T07:06:21.713Z,9220
2017-04-19T07:07:02.143Z,8760
2017-04-19T07:07:42.524Z,7392
2017-04-19T07:08:22.898Z,8508
2017-04-19T07:09:03.303Z,8540
2017-04-19T07:09:43.773Z,9568
2017-04-19T07:10:24.191Z,11256
2017-04-19T07:11:04.682Z,10796
2017-04-19T07:11:45.032Z,10048
2017-04-19T07:12:25.453Z,9028
2017-04-19T07:13:05.848Z,11324
2017-04-19T07:13:46.234Z,11388
2017-04-19T07:14:26.640Z,10468
2017-04-19T07:15:07.063Z,9672
2017-04-19T07:15:47.517Z,7432
2017-04-19T07:16:27.958Z,7960
2017-04-19T07:17:08.329Z,8164
2017-04-19T07:17:48.742Z,9260
2017-04-19T07:18:29.110Z,9120
2017-04-19T07:19:09.939Z,9420
2017-04-19T07:19:50.414Z,9808
2017-04-19T07:20:30.802Z,11208
2017-04-19T07:21:11.186Z,11956
2017-04-19T07:21:51.592Z,11540
2017-04-19T07:22:32.070Z,11324
2017-04-19T07:23:13.107Z,11904
2017-04-19T07:23:53.687Z,11072
2017-04-19T07:24:34.045Z,9376
2017-04-19T07:25:14.787Z,8744
2017-04-19T07:25:55.155Z,7608
2017-04-19T07:26:35.600Z,6856
2017-04-19T07:27:16.013Z,5776
2017-04-19T07:27:57.146Z,6060
2017-04-19T07:28:37.592Z,7448
2017-04-19T07:29:18.003Z,8832
2017-04-19T07:29:58.342Z,9192
2017-04-19T07:30:38.770Z,9408
2017-04-19T07:31:19.102Z,9328
2017-04-19T07:31:59.548Z,9272
2017-04-19T07:32:39.943Z,8344
2017-04-19T07:33:20.332Z,7652
2017-04-19T07:34:00.870Z,7868
2017-04-19T07:34:42.101Z,7712
2017-04-19T07:35:22.468Z,7408
2017-04-19T07:36:03.045Z,6236
2017-04-19T07:36:43.894Z,7276
2017-04-19T07:37:24.648Z,7920
2017-04-19T07:38:05.020Z,7424
2017-04-19T07:38:45.407Z,7136
2017-04-19T07:39:25.822Z,7196
2017-04-19T07:40:06.338Z,6564
2017-04-19T07:40:46.803Z,7268
2017-04-19T07:41:27.192Z,8476
2017-04-19T07:42:07.636Z,9660
2017-04-19T07:42:48.050Z,10400
2017-04-19T07:43:28.478Z,10564
2017-04-19T07:44:08.875Z,10008
2017-04-19T07:44:52.724Z,9460
2017-04-19T07:45:33.351Z,9144
2017-04-19T07:46:15.570Z,8344
2017-04-19T07:46:57.641Z,7432
2017-04-19T07:47:38.003Z,7512
2017-04-19T07:48:18.431Z,8372
2017-04-19T07:48:59.247Z,7636
2017-04-19T07:49:39.669Z,6296
2017-04-19T07:50:20.822Z,6164
2017-04-19T07:51:01.290Z,6132
2017-04-19T07:51:41.701Z,5124
2017-04-19T07:52:22.136Z,4416
2017-04-19T07:53:02.512Z,4864
2017-04-19T07:53:42.936Z,5356
2017-04-19T07:54:23.304Z,5780
2017-04-19T07:55:03.748Z,6184
2017-04-19T07:55:44.135Z,6560
2017-04-19T07:56:24.642Z,7068
2017-04-19T07:57:04.993Z,7680
2017-04-19T07:57:45.376Z,8280
2017-04-19T07:58:25.772Z,8596
2017-04-19T07:59:06.223Z,9348
2017-04-19T07:59:46.669Z,9296
2017-04-19T08:00:27.183Z,8672
2017-04-19T08:01:07.627Z,7844
2017-04-19T08:01:48.077Z,9072
2017-04-19T08:02:28.498Z,9532
2017-04-19T08:03:08.874Z,9584
2017-04-19T08:03:49.355Z,11476
2017-04-19T08:04:29.735Z,12924
2017-04-19T08:05:10.176Z,13712
2017-04-19T08:05:50.530Z,12836
2017-04-19T08:06:30.982Z,11304
2017-04-19T08:07:11.389Z,10404
2017-04-19T08:07:52.329Z,10148
2017-04-19T08:08:33.565Z,9908
2017-04-19T08:09:14.717Z,8732
2017-04-19T08:09:55.123Z,7188
2017-04-19T08:10:36.244Z,6588
2017-04-19T08:11:16.665Z,7372
2017-04-19T08:11:57.734Z,9364
2017-04-19T08:12:38.006Z,14648
2017-04-19T08:13:18.851Z,16736
2017-04-19T08:13:59.257Z,18080
2017-04-19T08:14:39.705Z,16800
2017-04-19T08:15:20.192Z,16524
2017-04-19T08:16:00.603Z,18176
2017-04-19T08:16:41.031Z,24800
2017-04-19T08:17:21.493Z,111712
2017-04-19T08:18:01.838Z,53184
2017-04-19T08:18:42.288Z,43072
2017-04-19T08:19:22.672Z,51584
2017-04-19T08:20:03.094Z,42976
2017-04-19T08:20:43.536Z,28512
2017-04-19T08:21:23.965Z,25568
2017-04-19T08:22:04.317Z,18944
2017-04-19T08:22:44.734Z,13684
2017-04-19T08:23:25.182Z,10940
2017-04-19T08:24:05.612Z,10056
2017-04-19T08:24:46.038Z,10360
2017-04-19T08:25:26.416Z,11264
2017-04-19T08:26:06.842Z,11028
2017-04-19T08:26:47.235Z,10048
2017-04-19T08:27:27.688Z,13600
2017-04-19T08:28:08.066Z,25088
2017-04-19T08:28:48.512Z,28000
2017-04-19T08:29:28.963Z,16308
2017-04-19T08:30:09.372Z,14972
2017-04-19T08:30:49.770Z,14320
2017-04-19T08:31:30.189Z,15972
2017-04-19T08:32:10.602Z,25664
2017-04-19T08:32:51.079Z,18176
2017-04-19T08:33:31.569Z,21792
2017-04-19T08:34:12.021Z,25792
2017-04-19T08:34:52.458Z,35488
2017-04-19T08:35:32.859Z,43776
2017-04-19T08:36:13.325Z,32800
2017-04-19T08:36:53.730Z,30752
2017-04-19T08:37:34.129Z,29568
2017-04-19T08:38:14.552Z,47104
2017-04-19T08:38:54.955Z,43616
2017-04-19T08:39:35.341Z,27296
2017-04-19T08:40:15.801Z,19840
2017-04-19T08:40:56.096Z,20448
2017-04-19T08:41:36.552Z,62784
2017-04-19T08:42:17.033Z,45888
2017-04-19T08:42:57.399Z,57888
2017-04-19T08:43:37.835Z,36992
2017-04-19T08:44:18.282Z,28000
2017-04-19T08:44:58.681Z,25472
2017-04-19T08:45:39.128Z,25152
2017-04-19T08:46:19.502Z,26784
2017-04-19T08:46:59.879Z,27680
2017-04-19T08:47:40.360Z,39072
2017-04-19T08:48:20.699Z,35936
2017-04-19T08:49:01.163Z,42464
2017-04-19T08:49:41.524Z,42720
2017-04-19T08:50:21.950Z,37824
2017-04-19T08:51:02.389Z,22656
2017-04-19T08:51:42.732Z,18112
2017-04-19T08:52:23.154Z,16336
2017-04-19T08:53:03.582Z,15556
2017-04-19T08:53:43.990Z,15976
2017-04-19T08:54:24.390Z,34496
2017-04-19T08:55:04.865Z,70112
2017-04-19T08:55:45.261Z,19296
2017-04-19T08:56:25.676Z,18784
2017-04-19T08:57:06.105Z,20864
2017-04-19T08:57:46.492Z,20928
2017-04-19T08:58:26.901Z,23424
2017-04-19T08:59:07.290Z,104736
2017-04-19T08:59:47.698Z,44160
2017-04-19T09:00:28.061Z,47520
2017-04-19T09:01:08.576Z,49856
2017-04-19T09:01:48.928Z,43776
2017-04-19T09:02:29.300Z,67872
2017-04-19T09:03:09.718Z,90912
2017-04-19T09:03:50.182Z,99200
2017-04-19T09:04:30.621Z,92768
2017-04-19T09:05:10.989Z,131488
2017-04-19T09:05:51.396Z,81248
2017-04-19T09:06:31.826Z,78208
2017-04-19T09:07:12.259Z,60928
2017-04-19T09:07:52.732Z,86112
2017-04-19T09:08:33.108Z,133728
2017-04-19T09:09:13.498Z,125280
2017-04-19T09:09:53.899Z,55008
2017-04-19T09:10:34.275Z,53824
2017-04-19T09:11:14.686Z,107136
2017-04-19T09:11:55.139Z,107968
2017-04-19T09:12:35.549Z,126752
2017-04-19T09:13:15.943Z,123904
2017-04-19T09:13:56.386Z,122304
2017-04-19T09:14:36.807Z,117568
2017-04-19T09:15:17.220Z,116160
2017-04-19T09:15:57.719Z,115008
2017-04-19T09:16:38.085Z,67232
2017-04-19T09:17:18.555Z,106240
2017-04-19T09:17:58.976Z,24096
2017-04-19T09:18:39.400Z,24288
2017-04-19T09:19:19.811Z,24160
2017-04-19T09:20:00.221Z,24384
2017-04-19T09:20:40.601Z,26144
2017-04-19T09:21:21.052Z,110048
2017-04-19T09:22:01.485Z,111360
2017-04-19T09:22:41.833Z,20096
2017-04-19T09:23:22.277Z,17440
2017-04-19T09:24:02.702Z,16456
2017-04-19T09:24:43.096Z,18016
2017-04-19T09:25:23.528Z,120576
2017-04-19T09:26:03.955Z,119712
2017-04-19T09:26:44.378Z,105312
2017-04-19T09:27:24.768Z,127936
2017-04-19T09:28:05.206Z,108224
2017-04-19T09:28:45.614Z,41216
2017-04-19T09:29:26.062Z,133184
2017-04-19T09:30:06.440Z,83872
2017-04-19T09:30:46.867Z,113760
2017-04-19T09:31:27.277Z,94016
2017-04-19T09:32:07.703Z,17216
2017-04-19T09:32:48.146Z,14036
2017-04-19T09:33:28.561Z,12436
2017-04-19T09:34:08.985Z,11536